Asyut, Egypt

9:19 PM EET on July 24, 2014 (GMT +0200)
Asyut International (HEAT) Elev 741 ft | 27.04 °N, 31.01 °E | Change Station

Current weather conditions updated 1 hour ago

Clear
Clear
93 °F
Feels Like 91 °F
N
10
Wind Variable Wind from NW

Tomorrow is forecast to be nearly the same temperature as today.

Today
High -- | Low -- °F
--% Chance of Precip.
Yesterday
High -- | Low -- °F
Precip. -- in
5:15 AM 6:48 PM
Waning Crescent, 4% visible
Pressure 29.77 in
Visibility -9999.0 miles
Clouds
Heat Index 91 °F
Dew Point 55 °F
Humidity 28%
Rainfall 0.00 in
Snow Depth Not available.
UV Not available.
Pollen Not available.
Air Quality Not available.
Flu Activity Not available.
METAR HEAT 241800Z 31009KT CAVOK 34/13 Q1008 NOSIG

More Conditions Fewer Conditions

Pressure 29.77 in
Visibility -9999.0 miles
Clouds
Heat Index 91 °F
Dew Point 55 °F
Humidity 28%
Rainfall 0.00 in
Snow Depth Not available.
UV Not available.
Pollen Not available.
Air Quality Not available.
Flu Activity Not available.
METAR HEAT 241800Z 31009KT CAVOK 34/13 Q1008 NOSIG

More Conditions Fewer Conditions

10-Day Weather Forecast

Almanac

Astronomy

Jul. 24, 2014 Rise Set
Actual Time 5:15 AM EET 6:48 PM EET
Civil Twilight 4:50 AM EET 7:14 PM EET
Nautical Twilight 4:19 AM EET 7:44 PM EET
Astronomical Twilight 3:47 AM EET 8:16 PM EET
Moon 3:05 AM EET 4:51 PM EET
Length of Visible Light 14h 23m
Length of Day
13h 33m
Tomorrow will be 1m 2s shorter.
Waning Crescent, 4% of the Moon is Illuminated
Today
Waning Crescent
Jul 26
New
Aug 3
First Quarter
Aug 10
Full
Aug 17
Last Quarter

Today's Extremes

Country Highs Country Lows

Community

WunderPhotos

Upload Photos

1,737,094 photos uploaded!

Nearby

Snow Depth

Not available.

Earthquake Activity

City Distance Mag. Time & Date
No recent earthquake activity has been reported nearby.
Minimum magnitude displayed is 2.5.

Coastal Water Temperatures

Place Temperature
No Stations Reporting

Nearby Weather Stations

There are no personal weather stations in this area.